Time;durP1;ratioP1;P1;durP2;ratioP2;P2;SDS_P1;SDS_P2;PMS_P1;PMS_P2;Temp;Humidity;BMP_temperature;BMP_pressure;BME280_temperature;BME280_humidity;BME280_pressure;Samples;Min_cycle;Max_cycle;Signal;HPM_P1;HPM_P2
2022/02/23 00:01:38;;;;;;;7.53;1.27;;;6.20;76.60;;;;;;5009073;28;20073;-70
2022/02/23 00:04:06;;;;;;;5.95;1.35;;;6.20;76.70;;;;;;4989318;28;20047;-71
2022/02/23 00:06:34;;;;;;;4.25;1.05;;;6.20;76.70;;;;;;4988234;28;20489;-71
2022/02/23 00:09:03;;;;;;;5.47;1.02;;;6.20;76.70;;;;;;4993198;28;20519;-71
2022/02/23 00:11:30;;;;;;;6.93;1.42;;;6.20;76.70;;;;;;4993749;28;20496;-70
2022/02/23 00:13:58;;;;;;;9.68;0.88;;;6.30;76.90;;;;;;4994835;28;20042;-70
2022/02/23 00:16:25;;;;;;;3.60;0.65;;;6.20;77.10;;;;;;4994814;28;20038;-70
2022/02/23 00:18:53;;;;;;;4.63;1.05;;;6.20;77.30;;;;;;4970146;28;20055;-70
2022/02/23 00:21:21;;;;;;;9.40;1.52;;;6.10;77.50;;;;;;4994643;28;20043;-70
2022/02/23 00:23:49;;;;;;;8.40;1.42;;;6.10;77.70;;;;;;4994736;28;20070;-70
2022/02/23 00:26:16;;;;;;;12.68;1.25;;;6.10;77.80;;;;;;4994565;28;20042;-70
2022/02/23 00:28:44;;;;;;;12.10;1.42;;;6.10;78.00;;;;;;4974260;28;20408;-70
2022/02/23 00:31:12;;;;;;;5.80;1.02;;;6.10;78.10;;;;;;4993379;28;20049;-70
2022/02/23 00:33:40;;;;;;;8.57;1.42;;;6.10;78.20;;;;;;5009609;28;20243;-70
2022/02/23 00:36:08;;;;;;;11.98;1.50;;;6.00;78.30;;;;;;4994375;28;20049;-70
2022/02/23 00:38:36;;;;;;;10.30;1.42;;;6.00;78.50;;;;;;4998324;28;20502;-70
2022/02/23 00:41:03;;;;;;;8.50;1.48;;;5.90;78.80;;;;;;4986785;28;20555;-70
2022/02/23 00:43:31;;;;;;;8.93;1.85;;;5.80;79.00;;;;;;4957961;28;20058;-70
2022/02/23 00:46:00;;;;;;;7.80;1.33;;;5.80;79.20;;;;;;4973562;28;20058;-70
2022/02/23 00:48:28;;;;;;;8.70;1.42;;;5.70;79.40;;;;;;4958257;28;20492;-70
2022/02/23 00:50:55;;;;;;;6.82;1.35;;;5.60;79.90;;;;;;4995446;28;20066;-71
2022/02/23 00:53:23;;;;;;;8.60;1.45;;;5.50;80.00;;;;;;4991583;28;20536;-70
2022/02/23 00:55:52;;;;;;;10.77;1.80;;;5.30;80.40;;;;;;4992411;28;20054;-70
2022/02/23 00:58:19;;;;;;;12.05;1.67;;;5.30;81.10;;;;;;4993844;28;20622;-70
2022/02/23 01:00:47;;;;;;;10.35;1.30;;;5.30;81.20;;;;;;4981550;28;20050;-70
2022/02/23 01:03:15;;;;;;;11.10;1.42;;;5.30;81.30;;;;;;5002451;28;20072;-71
2022/02/23 01:05:42;;;;;;;8.38;1.40;;;5.30;81.40;;;;;;5003713;28;20050;-70
2022/02/23 01:08:10;;;;;;;12.52;1.95;;;5.30;81.60;;;;;;5003333;28;20058;-70
2022/02/23 01:10:38;;;;;;;14.52;2.08;;;5.20;81.60;;;;;;5000093;28;20046;-71
2022/02/23 01:13:06;;;;;;;13.18;1.92;;;5.20;81.90;;;;;;5004620;28;20056;-71
2022/02/23 01:15:34;;;;;;;13.05;1.70;;;5.10;82.20;;;;;;5001575;28;20058;-71
2022/02/23 01:18:02;;;;;;;15.75;2.63;;;5.20;82.80;;;;;;4996241;28;20526;-71
2022/02/23 01:20:29;;;;;;;13.40;1.55;;;5.30;82.90;;;;;;4991743;28;20043;-71
2022/02/23 01:22:59;;;;;;;8.10;1.70;;;5.30;82.90;;;;;;4991592;28;20057;-71
2022/02/23 01:25:28;;;;;;;10.73;1.63;;;5.30;82.90;;;;;;4991660;28;20047;-71
2022/02/23 01:28:02;;;;;;;11.93;1.55;;;5.30;83.00;;;;;;4996972;28;20137;-71
2022/02/23 01:30:31;;;;;;;;;;;5.20;83.40;;;;;;5004438;28;20049;-72
2022/02/23 01:32:59;;;;;;;9.98;1.50;;;5.30;83.70;;;;;;5019316;28;20405;-71
2022/02/23 01:35:27;;;;;;;10.05;1.45;;;5.30;83.70;;;;;;4994093;28;20137;-71
2022/02/23 01:37:55;;;;;;;15.05;1.83;;;5.20;83.80;;;;;;5003393;28;20407;-70
2022/02/23 01:40:23;;;;;;;11.57;1.52;;;5.20;84.20;;;;;;4999409;28;20076;-70
2022/02/23 01:42:52;;;;;;;14.15;1.98;;;5.20;84.20;;;;;;4994441;28;20046;-71
2022/02/23 01:45:20;;;;;;;10.88;1.85;;;5.20;84.40;;;;;;4997388;28;20058;-71
2022/02/23 01:47:48;;;;;;;16.10;2.22;;;5.10;84.30;;;;;;4982287;28;20054;-70
2022/02/23 01:50:16;;;;;;;14.95;1.83;;;5.00;84.50;;;;;;4991195;28;20415;-70
2022/02/23 01:52:44;;;;;;;11.70;1.70;;;5.00;84.60;;;;;;5012424;28;20054;-70
2022/02/23 01:55:12;;;;;;;16.73;2.10;;;4.90;84.80;;;;;;4974313;28;20055;-71
2022/02/23 01:57:40;;;;;;;15.30;1.58;;;4.90;85.00;;;;;;4959798;28;20072;-70
2022/02/23 02:00:12;;;;;;;16.50;1.80;;;4.80;85.20;;;;;;4993457;28;20054;-70
2022/02/23 02:02:40;;;;;;;13.52;2.05;;;4.80;85.20;;;;;;4991466;28;20049;-70
2022/02/23 02:05:15;;;;;;;10.20;1.67;;;4.90;85.10;;;;;;4959099;28;20050;-70
2022/02/23 02:07:42;;;;;;;2.90;0.63;;;4.90;85.00;;;;;;4992329;28;20039;-71
2022/02/23 02:10:12;;;;;;;13.52;1.83;;;4.90;84.80;;;;;;4992846;28;20049;-71
2022/02/23 02:12:41;;;;;;;3.47;1.38;;;4.90;84.70;;;;;;4975496;28;20046;-71
2022/02/23 02:15:09;;;;;;;11.93;1.40;;;4.90;84.50;;;;;;4975647;28;20050;-70
2022/02/23 02:17:36;;;;;;;13.95;1.65;;;5.00;84.40;;;;;;4992583;28;20065;-70
2022/02/23 02:20:04;;;;;;;17.02;1.83;;;5.00;84.20;;;;;;4991753;28;20051;-70
2022/02/23 02:22:32;;;;;;;12.32;1.38;;;5.00;84.00;;;;;;4991011;28;20046;-71
2022/02/23 02:25:00;;;;;;;11.80;1.77;;;5.00;84.00;;;;;;4993602;28;20050;-70
2022/02/23 02:27:28;;;;;;;13.27;1.75;;;5.10;83.80;;;;;;4991417;28;20534;-70
2022/02/23 02:29:55;;;;;;;16.60;1.92;;;5.10;83.60;;;;;;4991982;28;20412;-70
2022/02/23 02:32:24;;;;;;;6.88;1.33;;;5.20;83.40;;;;;;4991578;28;20046;-70
2022/02/23 02:34:52;;;;;;;12.18;2.53;;;5.20;83.20;;;;;;4975348;28;20050;-70
2022/02/23 02:37:19;;;;;;;13.98;2.28;;;5.20;82.90;;;;;;4991231;28;20046;-70
2022/02/23 02:39:47;;;;;;;7.10;1.10;;;5.20;82.70;;;;;;4989698;28;20061;-71
2022/02/23 02:42:20;;;;;;;12.35;1.33;;;5.20;82.60;;;;;;4990224;28;20109;-71
2022/02/23 02:44:47;;;;;;;8.25;0.93;;;5.10;82.40;;;;;;4991380;28;20061;-71
2022/02/23 02:47:16;;;;;;;5.97;1.08;;;5.20;81.90;;;;;;4991425;28;20057;-71
2022/02/23 02:49:43;;;;;;;12.65;1.17;;;5.20;81.40;;;;;;4992464;28;20054;-71
2022/02/23 02:52:11;;;;;;;11.27;1.48;;;5.30;80.80;;;;;;4995071;28;20050;-71
2022/02/23 02:54:38;;;;;;;9.48;1.25;;;5.30;80.20;;;;;;4978428;28;20580;-70
2022/02/23 02:57:06;;;;;;;7.97;1.08;;;5.30;79.40;;;;;;4993199;28;20039;-71
2022/02/23 02:59:34;;;;;;;13.52;1.77;;;5.30;79.20;;;;;;5006935;28;20065;-71
2022/02/23 03:02:02;;;;;;;10.88;1.48;;;5.30;79.00;;;;;;4994470;28;20428;-71
2022/02/23 03:04:30;;;;;;;9.70;1.13;;;5.30;78.90;;;;;;4993133;28;20069;-71
2022/02/23 03:06:57;;;;;;;12.20;1.58;;;5.30;78.70;;;;;;4976329;28;20058;-71
2022/02/23 03:09:27;;;;;;;10.63;1.20;;;5.30;78.50;;;;;;4975317;28;20050;-71
2022/02/23 03:11:55;;;;;;;9.13;0.98;;;5.30;78.30;;;;;;4975010;28;20506;-71
2022/02/23 03:14:22;;;;;;;12.15;1.60;;;5.30;77.70;;;;;;4975356;28;20069;-71
2022/02/23 03:16:50;;;;;;;13.85;1.52;;;5.40;76.90;;;;;;4976487;28;20039;-71
2022/02/23 03:19:17;;;;;;;12.20;1.23;;;5.50;76.10;;;;;;4958965;28;20055;-71
2022/02/23 03:21:45;;;;;;;3.65;1.15;;;5.70;75.20;;;;;;4976506;28;20051;-71
2022/02/23 03:24:13;;;;;;;10.27;1.33;;;5.70;74.80;;;;;;4976408;28;20069;-70
2022/02/23 03:26:40;;;;;;;14.55;1.92;;;5.70;74.50;;;;;;4976376;28;20051;-71
2022/02/23 03:29:08;;;;;;;8.60;1.15;;;5.70;74.50;;;;;;4975311;28;20043;-71
2022/02/23 03:31:35;;;;;;;6.57;0.73;;;5.70;74.30;;;;;;4976305;28;20058;-71
2022/02/23 03:34:03;;;;;;;9.68;1.30;;;5.60;74.00;;;;;;4976047;28;20047;-71
2022/02/23 03:36:31;;;;;;;12.82;1.98;;;5.60;73.90;;;;;;4976203;28;20054;-71
2022/02/23 03:38:58;;;;;;;6.65;1.00;;;5.60;74.00;;;;;;4974871;28;20416;-71
2022/02/23 03:41:26;;;;;;;8.57;1.63;;;5.50;73.70;;;;;;4974769;28;20051;-71
2022/02/23 03:43:54;;;;;;;8.95;1.45;;;5.60;73.80;;;;;;4976280;28;20051;-71
2022/02/23 03:46:21;;;;;;;9.15;1.58;;;5.60;73.80;;;;;;4976104;28;20038;-71
2022/02/23 03:48:49;;;;;;;7.60;1.13;;;5.60;73.90;;;;;;4974697;28;20385;-71
2022/02/23 03:51:18;;;;;;;16.17;2.17;;;5.50;74.00;;;;;;4975907;28;20380;-71
2022/02/23 03:53:46;;;;;;;9.77;1.77;;;5.50;74.00;;;;;;4975971;28;20062;-71
2022/02/23 03:59:00;;;;;;;8.35;1.70;;;5.50;74.20;;;;;;4975703;28;20047;-71
2022/02/23 04:01:28;;;;;;;8.73;1.02;;;5.60;73.90;;;;;;4976300;28;20053;-71
2022/02/23 04:03:55;;;;;;;10.50;1.50;;;5.60;73.80;;;;;;4974945;28;20054;-71
2022/02/23 04:06:23;;;;;;;13.05;1.45;;;5.60;73.90;;;;;;4989120;28;20042;-70
2022/02/23 04:08:51;;;;;;;13.70;2.05;;;5.70;73.90;;;;;;4993756;28;20047;-70
2022/02/23 04:11:19;;;;;;;7.20;1.42;;;5.70;73.60;;;;;;5005700;28;20053;-70
2022/02/23 04:13:46;;;;;;;12.32;1.98;;;5.70;73.40;;;;;;4994921;28;20373;-70
2022/02/23 04:16:14;;;;;;;7.85;1.13;;;5.80;73.30;;;;;;4993591;28;20401;-71
2022/02/23 04:18:43;;;;;;;7.70;1.45;;;5.80;73.30;;;;;;4994587;28;20050;-70
2022/02/23 04:21:11;;;;;;;11.43;1.45;;;5.90;73.10;;;;;;4995405;28;20062;-70
2022/02/23 04:23:39;;;;;;;14.00;1.83;;;5.90;73.20;;;;;;4995154;28;20415;-70
2022/02/23 04:26:07;;;;;;;13.48;1.60;;;5.90;73.30;;;;;;4993867;28;20093;-70
2022/02/23 04:28:35;;;;;;;8.75;1.67;;;6.00;73.40;;;;;;4995715;28;20046;-70
2022/02/23 04:31:02;;;;;;;15.07;1.67;;;6.00;73.50;;;;;;4993139;28;20046;-70
2022/02/23 04:33:30;;;;;;;12.00;1.67;;;5.90;73.70;;;;;;4991404;28;20054;-70
2022/02/23 04:35:58;;;;;;;11.48;1.85;;;5.90;73.90;;;;;;4967160;28;20394;-70
2022/02/23 04:38:25;;;;;;;10.50;1.85;;;5.90;74.10;;;;;;4971803;28;20035;-70
2022/02/23 04:40:53;;;;;;;7.82;1.50;;;5.90;74.20;;;;;;4973036;28;20050;-71
2022/02/23 04:43:27;;;;;;;9.98;1.20;;;5.90;74.30;;;;;;4971900;28;20055;-70
2022/02/23 04:45:54;;;;;;;8.40;1.15;;;5.90;74.30;;;;;;4974520;28;20055;-70
2022/02/23 04:48:22;;;;;;;8.40;1.80;;;6.00;74.50;;;;;;4973937;28;20039;-70
2022/02/23 04:50:49;;;;;;;10.50;1.48;;;6.00;74.60;;;;;;4973576;28;20070;-70
2022/02/23 04:53:17;;;;;;;16.05;1.98;;;6.00;74.80;;;;;;4986551;28;20069;-70
2022/02/23 04:55:45;;;;;;;8.25;1.67;;;6.00;75.00;;;;;;4992674;28;20500;-70
2022/02/23 04:58:12;;;;;;;10.32;1.70;;;5.90;75.10;;;;;;4994068;28;20404;-70
2022/02/23 05:00:42;;;;;;;10.40;1.52;;;5.90;75.30;;;;;;4993884;28;20050;-70
2022/02/23 05:03:10;;;;;;;14.00;2.13;;;5.90;75.40;;;;;;4992808;28;20058;-70
2022/02/23 05:05:37;;;;;;;18.15;1.77;;;6.00;75.60;;;;;;4994076;28;20046;-70
2022/02/23 05:08:05;;;;;;;12.20;1.63;;;6.00;75.70;;;;;;4994242;28;20050;-70
2022/02/23 05:10:32;;;;;;;11.70;1.42;;;6.00;75.70;;;;;;4992863;28;20497;-70
2022/02/23 05:13:00;;;;;;;12.60;1.92;;;6.00;75.80;;;;;;4992601;28;20050;-70
2022/02/23 05:15:28;;;;;;;13.05;1.65;;;6.10;76.00;;;;;;4992980;28;20065;-70
2022/02/23 05:17:55;;;;;;;13.88;1.98;;;6.20;76.00;;;;;;4994000;28;20050;-70
2022/02/23 05:20:23;;;;;;;10.07;1.30;;;6.30;76.10;;;;;;4976372;28;20077;-70
2022/02/23 05:22:50;;;;;;;9.80;1.40;;;6.20;76.20;;;;;;5005371;28;20045;-70
2022/02/23 05:25:18;;;;;;;6.05;1.38;;;6.30;76.10;;;;;;4992589;28;20091;-70
2022/02/23 05:27:46;;;;;;;12.63;1.65;;;6.30;75.90;;;;;;4976393;28;20600;-70
2022/02/23 05:30:13;;;;;;;14.90;1.80;;;6.30;76.00;;;;;;4992418;28;20058;-70
2022/02/23 05:32:42;;;;;;;11.90;1.67;;;6.30;76.10;;;;;;4993544;28;20098;-70
2022/02/23 05:35:10;;;;;;;17.42;1.80;;;6.20;76.40;;;;;;4992275;28;20058;-70
2022/02/23 05:37:38;;;;;;;9.27;2.40;;;6.20;76.50;;;;;;4993635;28;20047;-70
2022/02/23 05:40:08;;;;;;;13.63;2.15;;;6.20;76.70;;;;;;4992293;28;20050;-70
2022/02/23 05:42:35;;;;;;;8.43;1.50;;;6.20;76.70;;;;;;4994358;28;20046;-70
2022/02/23 05:45:04;;;;;;;5.45;0.80;;;6.30;76.60;;;;;;4993279;28;20047;-70
2022/02/23 05:47:31;;;;;;;11.95;1.45;;;6.30;76.10;;;;;;4976233;28;20050;-70
2022/02/23 05:49:59;;;;;;;8.15;1.52;;;6.40;75.60;;;;;;4993137;28;20053;-70
2022/02/23 05:52:27;;;;;;;8.07;1.10;;;6.50;75.50;;;;;;4991892;28;20174;-70
2022/02/23 05:54:54;;;;;;;8.07;1.13;;;6.50;75.40;;;;;;4990541;28;20051;-70
2022/02/23 05:57:22;;;;;;;8.40;1.30;;;6.60;75.40;;;;;;4991754;28;20074;-71
2022/02/23 05:59:49;;;;;;;12.23;1.50;;;6.60;75.00;;;;;;4992920;28;20050;-70
2022/02/23 06:02:17;;;;;;;13.18;1.65;;;6.60;75.40;;;;;;4958180;28;20050;-71
2022/02/23 06:04:45;;;;;;;13.40;1.90;;;6.50;75.30;;;;;;4956758;28;20047;-71
2022/02/23 06:07:15;;;;;;;11.05;1.58;;;6.60;75.00;;;;;;4992121;28;20428;-70
2022/02/23 06:09:43;;;;;;;10.82;1.38;;;6.60;74.90;;;;;;4993162;28;20069;-71
2022/02/23 06:12:11;;;;;;;9.30;1.27;;;6.60;75.00;;;;;;4992320;28;20046;-70
2022/02/23 06:14:38;;;;;;;6.40;0.95;;;6.60;74.60;;;;;;4991325;28;20047;-71
2022/02/23 06:17:06;;;;;;;12.82;1.77;;;6.60;74.50;;;;;;4989745;28;20073;-70
2022/02/23 06:19:34;;;;;;;10.82;1.45;;;6.60;74.60;;;;;;4989863;28;20058;-70
2022/02/23 06:22:02;;;;;;;11.60;1.98;;;6.60;74.60;;;;;;4989896;28;20407;-70
2022/02/23 06:24:29;;;;;;;11.55;1.77;;;6.60;74.40;;;;;;4991183;28;20050;-70
2022/02/23 06:26:57;;;;;;;9.55;1.33;;;6.70;74.20;;;;;;4995990;28;20057;-70
2022/02/23 06:29:25;;;;;;;12.00;1.40;;;6.60;74.20;;;;;;4999224;28;20068;-70
2022/02/23 06:32:06;;;;;;;12.50;2.33;;;6.70;73.60;;;;;;4999469;28;20061;-70
2022/02/23 06:34:35;;;;;;;11.63;1.63;;;6.70;73.60;;;;;;5007073;28;20038;-70
2022/02/23 06:37:04;;;;;;;13.18;1.40;;;6.70;73.80;;;;;;4998171;28;20053;-72
2022/02/23 06:39:34;;;;;;;9.55;1.63;;;6.70;73.70;;;;;;4999123;28;20054;-71
2022/02/23 06:42:04;;;;;;;8.50;1.23;;;6.70;73.20;;;;;;4997865;28;20042;-71
2022/02/23 06:44:32;;;;;;;11.95;1.90;;;6.70;73.20;;;;;;4997929;28;20050;-71
2022/02/23 06:47:01;;;;;;;13.20;1.60;;;6.70;73.00;;;;;;4997834;28;20058;-70
2022/02/23 06:49:30;;;;;;;6.55;0.85;;;6.70;73.20;;;;;;4998027;28;20046;-71
2022/02/23 06:52:00;;;;;;;8.05;1.45;;;6.80;73.20;;;;;;4999834;28;20065;-70
2022/02/23 06:54:29;;;;;;;10.57;1.58;;;6.80;73.10;;;;;;4999296;28;20534;-70
2022/02/23 06:56:57;;;;;;;14.38;1.60;;;6.80;73.00;;;;;;4998849;28;20046;-71
2022/02/23 06:59:25;;;;;;;10.25;1.38;;;6.80;72.90;;;;;;4997803;28;20043;-71
2022/02/23 07:01:52;;;;;;;11.60;1.45;;;6.80;72.90;;;;;;4998819;28;20053;-71
2022/02/23 07:04:20;;;;;;;10.23;1.85;;;6.70;73.10;;;;;;4997713;28;20054;-70
2022/02/23 07:06:47;;;;;;;9.15;1.40;;;6.70;73.30;;;;;;4982359;28;20057;-71
2022/02/23 07:09:15;;;;;;;8.27;1.55;;;6.60;73.50;;;;;;4978376;28;20400;-71
2022/02/23 07:11:43;;;;;;;14.85;1.48;;;6.60;73.50;;;;;;4978012;28;20047;-71
2022/02/23 07:14:19;;;;;;;17.60;1.95;;;6.60;73.80;;;;;;4962145;28;20495;-71
2022/02/23 07:16:46;;;;;;;16.15;2.17;;;6.60;73.20;;;;;;4979252;28;20053;-71
2022/02/23 07:19:14;;;;;;;9.32;1.63;;;6.70;73.00;;;;;;4979450;28;20061;-71
2022/02/23 07:21:42;;;;;;;11.10;1.77;;;6.70;72.60;;;;;;4979026;28;20050;-71
2022/02/23 07:24:09;;;;;;;11.48;1.40;;;6.70;72.40;;;;;;4979402;28;20054;-71
2022/02/23 07:26:37;;;;;;;12.80;1.52;;;6.70;72.30;;;;;;4978022;28;20051;-71
2022/02/23 07:29:04;;;;;;;13.63;1.38;;;6.70;72.10;;;;;;4962626;28;20050;-70
2022/02/23 07:31:32;;;;;;;12.15;1.70;;;6.70;72.20;;;;;;4979210;28;20415;-69
2022/02/23 07:34:00;;;;;;;10.23;1.40;;;6.70;72.40;;;;;;4978087;28;20047;-70
2022/02/23 07:36:27;;;;;;;10.68;1.60;;;6.60;72.60;;;;;;4979177;28;20043;-70
2022/02/23 07:38:55;;;;;;;11.52;1.67;;;6.50;72.80;;;;;;4974289;28;20062;-71
2022/02/23 07:41:24;;;;;;;12.13;1.50;;;6.50;73.10;;;;;;4975512;28;20063;-71
2022/02/23 07:44:12;;;;;;;13.52;1.80;;;6.40;73.40;;;;;;4984276;28;20039;-71
2022/02/23 07:46:43;;;;;;;8.60;1.20;;;6.40;73.90;;;;;;4986773;28;20526;-71
2022/02/23 07:49:11;;;;;;;11.48;1.20;;;6.40;74.20;;;;;;4993108;28;20061;-71
2022/02/23 07:51:39;;;;;;;12.77;1.58;;;6.40;74.50;;;;;;4988147;28;20054;-71
2022/02/23 07:54:08;;;;;;;7.60;1.10;;;6.50;74.80;;;;;;4993964;28;20053;-71
2022/02/23 07:56:36;;;;;;;9.32;1.30;;;6.40;75.40;;;;;;4994057;28;20051;-71
2022/02/23 07:59:04;;;;;;;6.22;1.00;;;6.40;75.50;;;;;;4994176;28;20042;-71
2022/02/23 08:01:33;;;;;;;8.77;1.05;;;6.30;75.70;;;;;;4992004;28;20047;-71
2022/02/23 08:04:02;;;;;;;4.38;0.80;;;6.30;76.00;;;;;;4974781;28;20054;-71
2022/02/23 08:06:31;;;;;;;8.98;1.27;;;6.30;76.10;;;;;;4988044;28;20050;-71
2022/02/23 08:08:59;;;;;;;6.20;1.02;;;6.30;76.20;;;;;;4991919;28;20042;-71
2022/02/23 08:11:29;;;;;;;11.38;1.25;;;6.30;76.10;;;;;;5010665;28;20358;-71
2022/02/23 08:13:59;;;;;;;7.93;1.00;;;6.30;76.20;;;;;;4987296;28;20051;-71
2022/02/23 08:19:32;;;;;;;12.65;1.23;;;6.30;76.50;;;;;;4977524;28;20069;-71
2022/02/23 08:22:03;;;;;;;9.95;2.38;;;6.30;76.70;;;;;;4993423;28;20061;-71
2022/02/23 08:24:33;;;;;;;9.98;1.40;;;6.30;76.70;;;;;;4994707;28;20073;-70
2022/02/23 08:27:03;;;;;;;7.65;1.45;;;6.20;76.80;;;;;;4993708;28;20054;-71
2022/02/23 08:29:31;;;;;;;14.82;1.02;;;6.20;76.90;;;;;;4993455;28;20050;-71
2022/02/23 08:31:59;;;;;;;12.73;1.60;;;6.10;77.10;;;;;;4989885;28;20053;-71
2022/02/23 08:34:27;;;;;;;5.45;1.00;;;6.20;76.90;;;;;;4993553;28;20061;-71
2022/02/23 08:36:55;;;;;;;8.48;1.05;;;6.20;77.00;;;;;;4993302;28;20053;-71
2022/02/23 08:39:23;;;;;;;7.38;1.45;;;6.30;77.00;;;;;;4993076;28;20054;-71
2022/02/23 08:41:51;;;;;;;6.60;1.30;;;6.30;77.20;;;;;;4994509;28;20050;-71
2022/02/23 08:44:21;;;;;;;8.27;1.00;;;6.30;77.50;;;;;;4978131;28;20165;-71
2022/02/23 08:46:49;;;;;;;7.95;1.02;;;6.40;77.50;;;;;;4974826;28;20043;-71
2022/02/23 08:49:18;;;;;;;5.72;1.00;;;6.40;77.40;;;;;;4973467;28;20508;-71
2022/02/23 08:51:46;;;;;;;7.07;0.90;;;6.50;77.30;;;;;;4988468;28;20065;-71
2022/02/23 08:54:19;;;;;;;7.88;0.80;;;6.70;77.30;;;;;;4996750;28;20054;-71
2022/02/23 08:56:48;;;;;;;3.30;0.60;;;6.80;76.80;;;;;;4996399;28;20082;-71
2022/02/23 08:59:15;;;;;;;6.47;0.75;;;6.80;76.70;;;;;;5013724;28;20042;-71
2022/02/23 09:01:44;;;;;;;5.80;0.68;;;6.90;76.30;;;;;;5012285;28;20056;-72
2022/02/23 09:04:11;;;;;;;2.97;0.90;;;7.00;75.90;;;;;;4995807;28;20432;-72
2022/02/23 09:06:42;;;;;;;5.70;0.85;;;7.20;75.30;;;;;;4991835;28;20054;-72
2022/02/23 09:09:11;;;;;;;7.47;0.93;;;7.30;75.10;;;;;;4982390;28;20408;-72
2022/02/23 09:11:39;;;;;;;5.50;0.60;;;7.50;74.70;;;;;;4990326;28;20053;-72
2022/02/23 09:14:07;;;;;;;5.40;1.33;;;7.60;74.30;;;;;;4991994;28;20518;-71
2022/02/23 09:16:35;;;;;;;7.57;0.90;;;7.70;73.70;;;;;;4993490;28;20447;-71
2022/02/23 09:19:04;;;;;;;4.25;1.20;;;7.80;73.50;;;;;;4992229;28;20385;-71
2022/02/23 09:21:32;;;;;;;1.58;0.45;;;7.90;72.70;;;;;;4995190;28;20050;-71
2022/02/23 09:24:01;;;;;;;5.05;0.57;;;8.00;72.80;;;;;;4984896;28;20050;-71
2022/02/23 09:26:29;;;;;;;3.38;0.77;;;8.00;72.30;;;;;;4985516;28;20079;-71
2022/02/23 09:28:57;;;;;;;6.65;0.70;;;8.10;72.50;;;;;;4982101;28;20047;-71
2022/02/23 09:31:25;;;;;;;1.90;0.40;;;8.20;72.70;;;;;;4983440;28;20049;-71
2022/02/23 09:33:54;;;;;;;7.38;0.98;;;8.20;71.60;;;;;;4996001;28;20415;-71
2022/02/23 09:36:22;;;;;;;5.47;1.00;;;8.20;71.60;;;;;;4980276;28;20495;-71
2022/02/23 09:38:53;;;;;;;6.45;0.70;;;8.20;72.00;;;;;;4993165;28;20046;-72
2022/02/23 09:41:21;;;;;;;2.58;0.32;;;8.20;71.90;;;;;;4994999;28;20469;-72
2022/02/23 09:43:53;;;;;;;10.65;1.23;;;8.10;72.50;;;;;;4993511;28;20376;-70
2022/02/23 09:46:23;;;;;;;3.40;0.70;;;8.10;72.50;;;;;;4979907;28;20081;-71
2022/02/23 09:48:54;;;;;;;7.38;0.80;;;8.10;72.30;;;;;;5004176;28;20054;-71
2022/02/23 09:51:22;;;;;;;10.90;1.08;;;8.10;72.40;;;;;;4997562;28;20041;-71
2022/02/23 09:53:55;;;;;;;3.25;0.60;;;8.10;72.70;;;;;;4999660;28;20050;-71
2022/02/23 09:56:25;;;;;;;4.72;0.52;;;8.20;72.70;;;;;;4994584;28;20492;-71
2022/02/23 09:58:55;;;;;;;2.95;0.43;;;8.20;72.30;;;;;;4994769;28;20471;-71
2022/02/23 10:01:23;;;;;;;4.97;0.98;;;8.30;72.20;;;;;;5004372;28;20050;-71
2022/02/23 10:03:53;;;;;;;5.28;1.00;;;8.30;72.30;;;;;;4990432;28;20711;-74
2022/02/23 10:06:30;;;;;;;7.68;0.70;;;8.30;72.60;;;;;;4989853;28;20053;-74
2022/02/23 10:09:10;;;;;;;4.88;0.68;;;8.50;72.40;;;;;;4990652;28;20526;-75
2022/02/23 10:11:42;;;;;;;5.60;1.08;;;8.50;72.40;;;;;;4991735;28;20408;-72
2022/02/23 10:14:11;;;;;;;3.97;0.60;;;8.70;72.30;;;;;;4996891;28;20046;-75
2022/02/23 10:16:41;;;;;;;4.10;0.50;;;8.80;72.00;;;;;;5004999;28;20518;-71
2022/02/23 10:19:22;;;;;;;3.67;0.57;;;8.80;72.00;;;;;;4994855;28;20496;-71
2022/02/23 10:21:52;;;;;;;4.68;0.45;;;8.80;72.10;;;;;;4992074;28;20042;-71
2022/02/23 10:24:21;;;;;;;3.65;0.77;;;8.90;71.00;;;;;;4991841;28;20420;-71
2022/02/23 10:26:56;;;;;;;6.47;0.82;;;9.00;71.00;;;;;;4992835;28;20511;-72
2022/02/23 10:29:34;;;;;;;1.95;0.32;;;9.00;70.80;;;;;;4974095;28;20381;-71
2022/02/23 10:32:09;;;;;;;2.28;0.40;;;9.00;70.50;;;;;;4990639;28;20038;-71
2022/02/23 10:34:43;;;;;;;4.82;0.63;;;9.20;70.20;;;;;;4992046;28;20416;-74
2022/02/23 10:37:20;;;;;;;5.68;0.60;;;9.30;69.40;;;;;;4992013;28;20255;-72
2022/02/23 10:40:00;;;;;;;3.33;0.50;;;9.50;69.00;;;;;;4990483;28;20057;-78
2022/02/23 10:42:33;;;;;;;1.48;0.30;;;9.60;68.70;;;;;;4975315;28;20058;-72
2022/02/23 10:45:03;;;;;;;2.83;0.40;;;9.70;67.30;;;;;;4989504;28;20408;-73
2022/02/23 10:47:33;;;;;;;2.35;0.47;;;9.70;68.10;;;;;;4992734;28;20046;-73
2022/02/23 10:50:11;;;;;;;3.30;0.25;;;9.90;66.60;;;;;;4999118;28;20051;-71
2022/02/23 10:52:43;;;;;;;3.33;0.30;;;10.10;66.00;;;;;;4974015;28;20053;-72
2022/02/23 10:55:14;;;;;;;1.52;0.30;;;10.20;66.40;;;;;;4992046;28;20427;-72
2022/02/23 10:57:48;;;;;;;1.45;0.43;;;10.20;66.30;;;;;;4995723;28;20046;-72
2022/02/23 11:00:21;;;;;;;4.95;0.80;;;10.20;65.50;;;;;;4999691;28;20053;-71
2022/02/23 11:02:50;;;;;;;4.20;0.40;;;10.00;66.30;;;;;;4987811;28;20061;-71
2022/02/23 11:05:23;;;;;;;3.15;0.40;;;10.00;66.00;;;;;;4990838;28;20046;-71
2022/02/23 11:07:51;;;;;;;;;;;9.90;66.60;;;;;;4989643;28;20526;-71
2022/02/23 11:10:20;;;;;;;1.95;0.55;;;9.90;67.30;;;;;;4990570;28;19941;-71
2022/02/23 11:12:49;;;;;;;7.43;1.25;;;9.80;67.30;;;;;;4991959;28;20042;-71
2022/02/23 11:15:21;;;;;;;2.28;0.40;;;9.80;67.40;;;;;;4995700;28;20527;-71
2022/02/23 11:17:52;;;;;;;1.47;0.43;;;9.80;67.80;;;;;;4994193;28;20050;-71
2022/02/23 11:20:23;;;;;;;4.97;0.52;;;9.70;67.90;;;;;;4996186;28;20492;-70
2022/02/23 11:23:00;;;;;;;0.68;0.30;;;9.70;68.50;;;;;;4994772;28;20408;-70
2022/02/23 11:25:38;;;;;;;5.50;0.43;;;9.80;68.40;;;;;;4994958;28;20050;-71
2022/02/23 11:28:14;;;;;;;5.13;0.57;;;9.70;68.50;;;;;;4995430;28;20054;-70
2022/02/23 11:30:42;;;;;;;3.00;0.40;;;9.70;68.60;;;;;;4961242;28;20050;-71
2022/02/23 11:33:10;;;;;;;2.03;0.50;;;9.70;69.00;;;;;;4995362;28;20053;-71
2022/02/23 11:35:54;;;;;;;2.72;0.70;;;9.70;68.60;;;;;;4995524;28;20042;-71
2022/02/23 11:38:27;;;;;;;3.67;0.43;;;9.70;68.70;;;;;;4995227;28;20058;-70
2022/02/23 11:40:57;;;;;;;;;;;9.60;68.90;;;;;;4996294;28;20054;-71
2022/02/23 11:43:37;;;;;;;1.80;0.43;;;9.60;68.80;;;;;;5010715;28;20359;-70
2022/02/23 11:46:07;;;;;;;4.03;0.47;;;9.60;68.90;;;;;;4993940;28;20042;-70
2022/02/23 11:48:56;;;;;;;1.55;0.20;;;9.60;69.40;;;;;;4993557;28;20050;-71
2022/02/23 11:51:29;;;;;;;2.85;0.60;;;9.80;69.20;;;;;;4976028;28;20424;-70
2022/02/23 11:53:58;;;;;;;9.77;0.60;;;9.90;68.80;;;;;;4992448;28;20400;-71
2022/02/23 11:56:35;;;;;;;1.45;0.50;;;10.00;68.60;;;;;;4993625;28;20065;-71
2022/02/23 11:59:44;;;;;;;2.95;0.30;;;10.20;68.10;;;;;;4993492;28;20105;-70
2022/02/23 12:02:14;;;;;;;2.75;0.50;;;10.40;66.30;;;;;;4994585;28;20054;-71
2022/02/23 12:04:50;;;;;;;1.25;0.30;;;10.60;66.00;;;;;;4995476;28;20051;-72
2022/02/23 12:07:18;;;;;;;5.80;0.40;;;10.80;65.60;;;;;;4995323;28;20042;-71
2022/02/23 12:09:57;;;;;;;0.47;0.10;;;10.90;64.10;;;;;;4993431;28;20058;-72
2022/02/23 12:12:48;;;;;;;2.00;0.35;;;11.00;64.00;;;;;;4995179;28;20046;-70
2022/02/23 12:15:19;;;;;;;2.13;0.35;;;11.40;62.60;;;;;;4993576;28;20081;-71
2022/02/23 12:18:16;;;;;;;3.25;0.40;;;11.70;62.40;;;;;;4994926;28;20058;-71
2022/02/23 12:20:45;;;;;;;2.28;0.38;;;11.80;62.50;;;;;;4993846;28;20042;-71
2022/02/23 12:23:18;;;;;;;3.35;0.30;;;12.00;61.30;;;;;;4994296;28;20050;-72
2022/02/23 12:25:56;;;;;;;4.93;0.50;;;12.30;60.70;;;;;;4994810;28;20436;-72
2022/02/23 12:28:31;;;;;;;2.97;0.52;;;12.60;59.70;;;;;;4994862;28;20065;-72
2022/02/23 12:31:03;;;;;;;4.25;0.57;;;13.10;58.90;;;;;;4995155;28;20526;-72
2022/02/23 12:33:32;;;;;;;4.93;0.50;;;13.20;57.80;;;;;;4995000;28;20392;-72
2022/02/23 12:36:05;;;;;;;1.17;0.28;;;13.30;57.30;;;;;;4994744;28;20050;-71
2022/02/23 12:38:35;;;;;;;1.52;0.40;;;13.80;55.00;;;;;;4994612;28;20054;-72
2022/02/23 12:41:10;;;;;;;3.47;0.57;;;13.90;53.40;;;;;;4993627;28;20076;-71
2022/02/23 12:43:39;;;;;;;4.43;0.43;;;13.70;53.60;;;;;;4994750;28;20061;-71
2022/02/23 12:46:09;;;;;;;2.22;0.45;;;13.40;54.20;;;;;;4993425;28;20408;-72
2022/02/23 12:48:37;;;;;;;1.73;0.28;;;13.10;55.80;;;;;;4994097;28;20512;-72
2022/02/23 12:51:07;;;;;;;2.03;0.15;;;12.70;55.80;;;;;;4994591;28;20050;-72
2022/02/23 12:53:41;;;;;;;3.25;0.40;;;12.30;56.20;;;;;;4995004;28;20050;-72
2022/02/23 12:56:15;;;;;;;3.38;0.40;;;11.80;57.00;;;;;;4994859;28;20046;-72
2022/02/23 12:58:43;;;;;;;5.00;0.65;;;11.60;59.10;;;;;;4993601;28;20404;-72
2022/02/23 13:01:27;;;;;;;4.28;1.05;;;11.50;60.30;;;;;;4993934;28;20061;-72
2022/02/23 13:04:03;;;;;;;;;;;11.80;60.30;;;;;;4994829;28;20046;-72
2022/02/23 13:06:33;;;;;;;2.83;0.40;;;11.90;60.20;;;;;;4994385;28;19922;-79
2022/02/23 13:09:06;;;;;;;2.42;0.40;;;12.00;60.60;;;;;;4991173;28;20053;-72
2022/02/23 13:11:39;;;;;;;2.83;0.53;;;11.90;59.10;;;;;;4994009;28;20046;-72